Time;durP1;ratioP1;P1;durP2;ratioP2;P2;SDS_P1;SDS_P2;PMS_P1;PMS_P2;Temp;Humidity;BMP_temperature;BMP_pressure;BME280_temperature;BME280_humidity;BME280_pressure;Samples;Min_cycle;Max_cycle;Signal;HPM_P1;HPM_P2
2022/10/31 00:01:29;;;;;;;4.38;2.55;;;14.30;99.90;;;;;;5031379;28;20266;-72
2022/10/31 00:03:56;;;;;;;2.85;2.17;;;14.30;99.90;;;;;;5026884;28;20227;-72
2022/10/31 00:06:24;;;;;;;4.55;2.40;;;14.30;99.90;;;;;;5032588;28;20215;-72
2022/10/31 00:08:55;;;;;;;3.40;2.28;;;14.20;99.90;;;;;;5030535;28;20274;-72
2022/10/31 00:11:22;;;;;;;4.10;2.25;;;14.20;99.90;;;;;;5026262;28;20231;-72
2022/10/31 00:13:50;;;;;;;3.28;2.35;;;14.20;99.90;;;;;;5026304;28;20229;-72
2022/10/31 00:16:18;;;;;;;3.45;2.63;;;14.20;99.90;;;;;;5026002;28;20208;-71
2022/10/31 00:18:50;;;;;;;3.88;2.47;;;14.20;99.90;;;;;;5013461;28;20239;-72
2022/10/31 00:21:17;;;;;;;3.00;2.53;;;14.20;99.90;;;;;;5009617;28;20219;-72
2022/10/31 00:23:45;;;;;;;4.65;2.53;;;14.20;99.90;;;;;;5027620;28;20231;-72
2022/10/31 00:26:12;;;;;;;3.53;2.60;;;14.20;99.90;;;;;;5028667;28;20719;-72
2022/10/31 00:28:40;;;;;;;4.00;2.42;;;14.10;99.90;;;;;;5028253;28;20668;-72
2022/10/31 00:31:09;;;;;;;6.50;2.38;;;14.10;99.90;;;;;;5028485;28;20223;-72
2022/10/31 00:33:39;;;;;;;4.03;2.58;;;14.10;99.90;;;;;;5025677;28;20258;-72
2022/10/31 00:36:12;;;;;;;2.67;2.10;;;14.10;99.90;;;;;;5024049;28;20976;-72
2022/10/31 00:38:40;;;;;;;3.00;2.58;;;14.00;99.90;;;;;;5023868;28;20234;-72
2022/10/31 00:41:07;;;;;;;4.75;2.42;;;14.00;99.90;;;;;;5027941;28;20219;-72
2022/10/31 00:43:35;;;;;;;2.47;2.22;;;14.00;99.90;;;;;;5046605;23;20319;-75
2022/10/31 00:46:02;;;;;;;3.30;2.70;;;14.00;99.90;;;;;;5063940;28;20195;-75
2022/10/31 00:48:29;;;;;;;2.60;2.40;;;14.00;99.90;;;;;;5058842;28;20222;-76
2022/10/31 00:50:57;;;;;;;3.17;2.10;;;14.00;99.90;;;;;;5054322;28;20199;-75
2022/10/31 00:53:26;;;;;;;3.80;2.20;;;13.90;99.90;;;;;;5044776;28;20694;-76
2022/10/31 00:55:53;;;;;;;3.40;2.38;;;14.00;99.90;;;;;;5056431;28;20199;-75
2022/10/31 00:58:20;;;;;;;2.40;2.20;;;14.00;99.90;;;;;;5047542;28;20223;-75
2022/10/31 01:00:54;;;;;;;4.60;2.05;;;14.00;99.90;;;;;;5049646;28;20190;-75
2022/10/31 01:03:22;;;;;;;3.00;2.22;;;14.00;99.90;;;;;;5043550;28;20224;-76
2022/10/31 01:05:58;;;;;;;3.38;2.58;;;14.00;99.90;;;;;;5048949;28;20678;-75
2022/10/31 01:08:26;;;;;;;2.85;2.53;;;13.90;99.90;;;;;;5047567;28;20254;-75
2022/10/31 01:11:01;;;;;;;3.05;2.55;;;14.00;99.90;;;;;;5052988;28;20191;-75
2022/10/31 01:13:28;;;;;;;3.00;2.40;;;14.00;99.90;;;;;;5049645;28;20589;-75
2022/10/31 01:15:56;;;;;;;2.67;2.28;;;13.90;99.90;;;;;;5052732;28;20213;-74
2022/10/31 01:18:23;;;;;;;3.45;2.13;;;13.90;99.90;;;;;;5052734;28;20566;-75
2022/10/31 01:20:59;;;;;;;2.80;2.38;;;13.80;99.90;;;;;;5053295;28;20202;-76
2022/10/31 01:23:28;;;;;;;4.05;2.60;;;13.80;99.90;;;;;;5052246;28;20297;-76
2022/10/31 01:26:04;;;;;;;3.20;2.22;;;13.70;99.90;;;;;;5047638;28;20203;-75
2022/10/31 01:28:31;;;;;;;3.78;2.47;;;13.70;99.90;;;;;;5047879;28;20229;-74
2022/10/31 01:31:02;;;;;;;3.22;2.22;;;13.60;99.90;;;;;;5054512;28;20203;-75
2022/10/31 01:33:29;;;;;;;3.45;2.60;;;13.60;99.90;;;;;;5038172;28;20255;-76
2022/10/31 01:35:56;;;;;;;3.53;2.33;;;13.60;99.90;;;;;;5049047;28;20674;-75
2022/10/31 01:38:24;;;;;;;3.17;2.47;;;13.60;99.90;;;;;;5050336;28;20234;-75
2022/10/31 01:40:53;;;;;;;6.10;2.80;;;13.50;99.90;;;;;;5054746;28;20520;-76
2022/10/31 01:43:20;;;;;;;5.60;2.78;;;13.50;99.90;;;;;;5043466;28;20216;-76
2022/10/31 01:45:52;;;;;;;4.40;2.47;;;13.50;99.90;;;;;;5053143;28;20191;-75
2022/10/31 01:48:22;;;;;;;4.47;2.30;;;13.40;99.90;;;;;;5056177;28;20222;-75
2022/10/31 01:50:53;;;;;;;5.70;2.30;;;13.40;99.90;;;;;;5055046;28;20581;-75
2022/10/31 01:53:21;;;;;;;2.70;2.35;;;13.40;99.90;;;;;;5052361;28;20222;-76
2022/10/31 01:55:48;;;;;;;4.18;2.45;;;13.40;99.90;;;;;;5056259;28;20541;-76
2022/10/31 01:58:23;;;;;;;3.92;2.38;;;13.40;99.90;;;;;;5056096;28;20234;-76
2022/10/31 02:00:54;;;;;;;3.00;2.05;;;13.40;99.90;;;;;;5054761;28;20190;-75
2022/10/31 02:03:23;;;;;;;4.78;2.20;;;13.50;99.90;;;;;;5050480;28;20218;-76
2022/10/31 02:05:51;;;;;;;3.97;2.58;;;13.50;99.90;;;;;;5048291;28;20207;-77
2022/10/31 02:08:24;;;;;;;5.75;2.55;;;13.50;99.90;;;;;;5053164;28;20712;-75
2022/10/31 02:10:51;;;;;;;3.45;2.20;;;13.50;99.90;;;;;;5053671;28;20202;-76
2022/10/31 02:13:20;;;;;;;3.70;2.70;;;13.50;99.90;;;;;;5050548;28;20516;-75
2022/10/31 02:15:52;;;;;;;2.97;2.20;;;13.40;99.90;;;;;;5057654;28;20190;-75
2022/10/31 02:18:20;;;;;;;5.05;2.60;;;13.40;99.90;;;;;;5046522;28;20227;-75
2022/10/31 02:20:55;;;;;;;2.40;2.20;;;13.40;99.90;;;;;;5048942;28;20576;-75
2022/10/31 02:24:00;;;;;;;4.53;2.47;;;13.30;99.90;;;;;;5047072;28;20944;-75
2022/10/31 02:26:46;;;;;;;5.10;2.72;;;13.30;99.90;;;;;;5047244;28;20207;-76
2022/10/31 02:30:00;;;;;;;2.63;2.20;;;13.30;99.90;;;;;;5043038;28;20226;-75
2022/10/31 02:32:35;;;;;;;3.90;2.63;;;13.30;99.90;;;;;;4972148;28;20229;-75
2022/10/31 02:35:13;;;;;;;3.28;2.38;;;13.30;99.90;;;;;;5033196;28;20195;-76
2022/10/31 02:37:48;;;;;;;3.83;2.33;;;13.30;99.90;;;;;;5048738;28;20226;-75
2022/10/31 02:40:22;;;;;;;4.28;3.08;;;13.30;99.90;;;;;;5044389;28;20194;-76
2022/10/31 02:42:57;;;;;;;3.60;2.03;;;13.20;99.90;;;;;;5049007;28;20226;-75
2022/10/31 02:45:30;;;;;;;3.38;2.33;;;13.20;99.90;;;;;;5042291;28;20217;-75
2022/10/31 02:48:05;;;;;;;4.22;2.45;;;13.20;99.90;;;;;;5052358;28;20222;-75
2022/10/31 02:50:35;;;;;;;3.72;2.50;;;13.10;99.90;;;;;;5054587;28;20422;-76
2022/10/31 02:53:03;;;;;;;3.78;2.35;;;13.10;99.90;;;;;;5049887;28;20229;-75
2022/10/31 02:56:01;;;;;;;3.95;2.80;;;13.10;99.90;;;;;;5052831;28;20195;-76
2022/10/31 02:58:34;;;;;;;3.38;2.28;;;13.10;99.90;;;;;;5008501;28;20245;-76
2022/10/31 03:01:18;;;;;;;2.80;2.40;;;13.10;99.90;;;;;;5051606;28;20654;-76
2022/10/31 03:03:58;;;;;;;2.67;2.22;;;13.10;99.90;;;;;;5048482;28;20225;-75
2022/10/31 03:06:31;;;;;;;2.92;2.28;;;13.10;99.90;;;;;;5053856;28;20657;-75
2022/10/31 03:09:07;;;;;;;2.55;2.35;;;13.10;99.90;;;;;;5050751;28;21625;-75
2022/10/31 03:11:46;;;;;;;6.05;2.72;;;13.10;99.90;;;;;;5055784;28;20190;-75
2022/10/31 03:14:19;;;;;;;4.82;2.20;;;13.10;99.90;;;;;;5051799;28;20253;-75
2022/10/31 03:16:49;;;;;;;5.15;2.85;;;13.10;99.90;;;;;;5053896;28;20198;-76
2022/10/31 03:19:20;;;;;;;2.70;2.33;;;13.00;99.90;;;;;;5056549;28;20214;-76
2022/10/31 03:21:51;;;;;;;2.97;2.28;;;13.00;99.90;;;;;;5052949;28;20196;-75
2022/10/31 03:24:21;;;;;;;3.88;2.45;;;13.00;99.90;;;;;;5055108;28;20208;-74
2022/10/31 03:26:53;;;;;;;3.95;2.72;;;13.00;99.90;;;;;;5049616;28;20199;-75
2022/10/31 03:29:24;;;;;;;2.97;2.40;;;13.00;99.90;;;;;;5049699;28;20207;-75
2022/10/31 03:31:58;;;;;;;4.07;2.50;;;13.00;99.90;;;;;;5054766;28;20226;-75
2022/10/31 03:34:28;;;;;;;3.45;2.30;;;13.00;99.90;;;;;;5052872;28;20610;-75
2022/10/31 03:36:58;;;;;;;3.63;2.30;;;12.90;99.90;;;;;;5047742;28;20222;-74
2022/10/31 03:39:26;;;;;;;3.95;2.67;;;12.90;99.90;;;;;;5054207;28;20251;-76
2022/10/31 03:41:57;;;;;;;3.45;2.83;;;12.90;99.90;;;;;;5047495;28;20223;-75
2022/10/31 03:44:26;;;;;;;4.20;2.72;;;12.90;99.90;;;;;;5053209;28;20210;-75
2022/10/31 03:46:54;;;;;;;3.28;2.60;;;12.90;99.90;;;;;;5047646;28;20218;-75
2022/10/31 03:49:21;;;;;;;2.58;2.13;;;12.80;99.90;;;;;;5049295;28;20257;-75
2022/10/31 03:51:55;;;;;;;2.85;2.38;;;12.80;99.90;;;;;;5056265;28;20195;-76
2022/10/31 03:54:28;;;;;;;2.90;2.20;;;12.70;99.90;;;;;;5053689;28;20201;-76
2022/10/31 03:57:01;;;;;;;2.63;2.42;;;12.70;99.90;;;;;;5050448;28;20253;-76
2022/10/31 03:59:31;;;;;;;2.38;2.10;;;12.70;99.90;;;;;;5055442;28;20206;-76
2022/10/31 04:02:02;;;;;;;2.80;2.47;;;12.70;99.90;;;;;;5052110;28;20226;-75
2022/10/31 04:04:30;;;;;;;2.83;2.15;;;12.80;99.90;;;;;;5052653;28;20195;-75
2022/10/31 04:07:01;;;;;;;4.25;2.38;;;12.80;99.90;;;;;;5051473;28;20242;-75
2022/10/31 04:12:10;;;;;;;2.50;2.22;;;12.80;99.90;;;;;;5050480;28;20210;-80
2022/10/31 04:14:40;;;;;;;3.80;2.38;;;12.80;99.90;;;;;;5050479;28;20215;-78
2022/10/31 04:17:11;;;;;;;2.30;2.10;;;12.80;99.90;;;;;;5050069;28;20222;-78
2022/10/31 04:19:39;;;;;;;2.42;2.20;;;12.80;99.90;;;;;;5048125;28;20201;-80
2022/10/31 04:22:08;;;;;;;3.00;2.40;;;12.80;99.90;;;;;;5050239;28;20215;-84
2022/10/31 04:24:35;;;;;;;2.47;2.20;;;12.80;99.90;;;;;;5050417;28;20222;-79
2022/10/31 04:27:03;;;;;;;3.58;2.28;;;12.80;99.90;;;;;;5051529;28;20218;-82
2022/10/31 04:29:30;;;;;;;4.57;2.78;;;12.70;99.90;;;;;;5035827;28;20195;-78
2022/10/31 04:31:58;;;;;;;4.88;2.22;;;12.70;99.90;;;;;;5048075;28;20222;-77
2022/10/31 04:34:25;;;;;;;3.55;2.65;;;12.60;99.90;;;;;;5049831;28;20696;-77
2022/10/31 04:36:53;;;;;;;4.18;2.40;;;12.60;99.90;;;;;;5048369;28;20284;-81
2022/10/31 04:39:22;;;;;;;4.28;3.08;;;12.60;99.90;;;;;;5051022;28;20199;-78
2022/10/31 04:41:49;;;;;;;4.38;2.70;;;12.60;99.90;;;;;;5049923;28;20652;-78
2022/10/31 04:44:17;;;;;;;2.85;2.65;;;12.50;99.90;;;;;;5052176;28;20222;-78
2022/10/31 04:46:44;;;;;;;2.35;2.15;;;12.50;99.90;;;;;;5049751;28;20198;-83
2022/10/31 04:49:12;;;;;;;4.07;2.78;;;12.50;99.90;;;;;;5048891;28;20211;-80
2022/10/31 04:51:39;;;;;;;3.47;2.72;;;12.50;99.90;;;;;;5052114;28;20191;-80
2022/10/31 04:54:07;;;;;;;2.88;2.58;;;12.50;99.90;;;;;;5050638;28;20225;-82
2022/10/31 04:56:36;;;;;;;2.90;2.70;;;12.40;99.90;;;;;;5038394;28;20622;-80
2022/10/31 04:59:03;;;;;;;3.53;2.90;;;12.50;99.90;;;;;;5047005;28;20202;-82
2022/10/31 05:01:31;;;;;;;3.15;2.50;;;12.50;99.90;;;;;;5034849;28;20260;-79
2022/10/31 05:03:58;;;;;;;4.97;2.50;;;12.50;99.90;;;;;;5050525;28;20215;-82
2022/10/31 05:06:25;;;;;;;4.05;2.90;;;12.40;99.90;;;;;;5052534;28;20207;-80
2022/10/31 05:08:53;;;;;;;5.25;3.17;;;12.50;99.90;;;;;;5052322;28;20223;-82
2022/10/31 05:11:20;;;;;;;4.75;2.75;;;12.50;99.90;;;;;;5054422;28;20238;-81
2022/10/31 05:13:49;;;;;;;4.03;2.78;;;12.40;99.90;;;;;;5052352;28;20226;-79
2022/10/31 05:16:17;;;;;;;3.13;2.40;;;12.40;99.90;;;;;;5050217;28;20199;-78
2022/10/31 05:18:44;;;;;;;3.22;2.17;;;12.40;99.90;;;;;;5047320;28;20720;-76
2022/10/31 05:21:12;;;;;;;4.47;2.72;;;12.40;99.90;;;;;;5049991;28;20603;-79
2022/10/31 05:23:39;;;;;;;3.15;2.55;;;12.50;99.90;;;;;;5048456;28;20806;-76
2022/10/31 05:26:06;;;;;;;3.03;2.53;;;12.50;99.90;;;;;;5047643;28;20256;-76
2022/10/31 05:28:34;;;;;;;2.90;2.60;;;12.50;99.90;;;;;;5030559;28;20230;-77
2022/10/31 05:31:03;;;;;;;3.03;2.70;;;12.50;99.90;;;;;;5047003;28;20198;-77
2022/10/31 05:33:31;;;;;;;4.65;2.55;;;12.50;99.90;;;;;;5046973;28;20227;-77
2022/10/31 05:35:58;;;;;;;3.15;2.53;;;12.50;99.90;;;;;;5032570;28;20202;-76
2022/10/31 05:38:26;;;;;;;3.30;2.55;;;12.40;99.90;;;;;;5047065;28;20230;-78
2022/10/31 05:40:59;;;;;;;4.88;2.85;;;12.40;99.90;;;;;;5045079;28;20271;-78
2022/10/31 05:43:27;;;;;;;4.03;3.08;;;12.30;99.90;;;;;;5026864;28;20298;-81
2022/10/31 05:45:54;;;;;;;6.43;3.95;;;12.30;99.90;;;;;;5030940;28;20194;-79
2022/10/31 05:48:24;;;;;;;4.97;2.80;;;12.20;99.90;;;;;;5044937;28;20595;-79
2022/10/31 05:50:51;;;;;;;3.97;2.60;;;12.20;99.90;;;;;;5050129;28;20222;-79
2022/10/31 05:53:19;;;;;;;4.95;2.75;;;12.10;99.90;;;;;;5015366;28;20704;-77
2022/10/31 05:55:47;;;;;;;5.15;2.92;;;12.10;99.90;;;;;;5051455;28;20199;-81
2022/10/31 05:58:15;;;;;;;3.75;2.55;;;12.10;99.90;;;;;;5025372;28;20222;-80
2022/10/31 06:00:42;;;;;;;3.38;2.38;;;12.00;99.90;;;;;;5051742;28;20191;-80
2022/10/31 06:03:11;;;;;;;2.55;2.00;;;12.00;99.90;;;;;;5047818;28;20605;-81
2022/10/31 06:05:44;;;;;;;3.40;2.75;;;12.00;99.90;;;;;;5059691;28;20199;-79
2022/10/31 06:08:12;;;;;;;3.00;2.28;;;12.10;99.90;;;;;;5055147;28;20228;-78
2022/10/31 06:10:40;;;;;;;3.95;2.58;;;12.10;99.90;;;;;;5027757;28;20211;-78
2022/10/31 06:13:07;;;;;;;5.25;2.78;;;12.20;99.90;;;;;;5049361;28;20590;-80
2022/10/31 06:15:35;;;;;;;3.80;2.38;;;12.10;99.90;;;;;;5029238;28;20213;-78
2022/10/31 06:18:04;;;;;;;3.22;2.83;;;12.10;99.90;;;;;;5049326;28;20237;-78
2022/10/31 06:20:32;;;;;;;3.95;2.33;;;12.20;99.90;;;;;;5031868;28;20690;-81
2022/10/31 06:23:01;;;;;;;3.88;2.40;;;12.20;99.90;;;;;;5047763;28;20214;-77
2022/10/31 06:25:29;;;;;;;3.88;2.63;;;12.20;99.90;;;;;;5049372;28;20210;-83
2022/10/31 06:27:57;;;;;;;3.92;2.40;;;12.20;99.90;;;;;;5047348;28;20607;-77
2022/10/31 06:30:25;;;;;;;4.68;2.65;;;12.30;99.90;;;;;;5048562;28;20563;-79
2022/10/31 06:32:52;;;;;;;2.97;2.40;;;12.30;99.90;;;;;;5049064;28;20230;-82
2022/10/31 06:35:20;;;;;;;3.53;2.50;;;12.20;99.90;;;;;;5045511;28;20253;-76
2022/10/31 06:37:53;;;;;;;4.25;2.30;;;12.30;99.90;;;;;;5045733;28;20215;-82
2022/10/31 06:40:22;;;;;;;2.95;2.22;;;12.30;99.90;;;;;;5027774;28;20199;-83
2022/10/31 06:42:58;;;;;;;3.20;2.70;;;12.40;99.90;;;;;;5044605;28;20226;-82
2022/10/31 06:45:26;;;;;;;3.67;2.42;;;12.40;99.90;;;;;;5027503;28;20217;-79
2022/10/31 06:47:54;;;;;;;4.45;2.40;;;12.40;99.90;;;;;;5045284;28;20226;-82
2022/10/31 06:50:26;;;;;;;4.40;2.60;;;12.50;99.90;;;;;;5031180;28;20230;-83
2022/10/31 06:52:54;;;;;;;3.70;2.58;;;12.50;99.90;;;;;;5048014;28;20222;-77
2022/10/31 06:55:25;;;;;;;2.83;2.50;;;12.50;99.90;;;;;;5049992;28;20195;-82
2022/10/31 06:57:53;;;;;;;4.57;2.53;;;12.60;99.90;;;;;;5048737;28;20230;-81
2022/10/31 07:00:23;;;;;;;3.97;2.15;;;12.60;99.90;;;;;;5046493;28;20203;-81
2022/10/31 07:02:57;;;;;;;3.58;2.95;;;12.70;99.90;;;;;;5046559;28;20687;-79
2022/10/31 07:05:30;;;;;;;3.78;2.90;;;13.10;99.90;;;;;;5047503;28;20202;-81
2022/10/31 07:08:02;;;;;;;4.72;2.58;;;13.80;99.90;;;;;;5048132;28;20224;-78
2022/10/31 07:10:35;;;;;;;5.43;3.03;;;14.50;99.90;;;;;;5044659;28;20251;-83
2022/10/31 07:13:04;;;;;;;3.70;2.65;;;15.20;99.90;;;;;;5046112;28;20910;-82
2022/10/31 07:15:36;;;;;;;7.43;3.10;;;15.80;99.90;;;;;;5051139;28;20203;-85
2022/10/31 07:18:05;;;;;;;4.93;2.97;;;16.30;99.90;;;;;;5057969;28;20734;-81
2022/10/31 07:20:33;;;;;;;7.40;3.10;;;16.80;99.90;;;;;;5047116;28;20207;-80
2022/10/31 07:23:02;;;;;;;4.03;3.30;;;17.20;99.90;;;;;;5013646;28;20223;-84
2022/10/31 07:25:34;;;;;;;5.13;2.95;;;17.60;99.90;;;;;;5013737;28;20476;-82
2022/10/31 07:28:02;;;;;;;5.68;3.15;;;17.90;99.90;;;;;;5039358;28;20256;-78
2022/10/31 07:30:30;;;;;;;6.80;3.63;;;18.20;99.90;;;;;;5027467;28;20195;-82
2022/10/31 07:32:57;;;;;;;6.90;3.15;;;18.40;99.90;;;;;;5045517;28;20215;-82
2022/10/31 07:35:26;;;;;;;6.38;3.13;;;18.40;99.90;;;;;;5042892;28;20225;-82
2022/10/31 07:37:54;;;;;;;7.13;3.65;;;18.50;99.90;;;;;;5021199;28;20234;-79
2022/10/31 07:40:23;;;;;;;4.75;2.83;;;18.60;99.90;;;;;;5039959;28;20278;-82
2022/10/31 07:42:53;;;;;;;6.32;2.92;;;18.70;99.90;;;;;;5045648;28;20720;-81
2022/10/31 07:45:22;;;;;;;5.38;2.85;;;18.90;99.90;;;;;;5023269;28;20257;-81
2022/10/31 07:47:51;;;;;;;6.70;3.60;;;19.30;99.90;;;;;;5047454;28;20221;-76
2022/10/31 07:50:22;;;;;;;6.50;3.35;;;19.70;99.90;;;;;;5050102;28;20745;-78
2022/10/31 07:52:58;;;;;;;6.18;2.88;;;19.90;99.90;;;;;;5047217;28;20223;-79
2022/10/31 07:55:38;;;;;;;8.55;3.10;;;20.00;99.90;;;;;;5035761;28;20217;-78
2022/10/31 07:58:09;;;;;;;8.25;3.10;;;20.20;99.90;;;;;;5042769;28;20222;-76
2022/10/31 08:00:39;;;;;;;7.20;3.47;;;20.20;99.90;;;;;;5044607;28;20678;-76
2022/10/31 08:03:08;;;;;;;6.03;3.17;;;20.30;99.90;;;;;;5043256;28;20219;-76
2022/10/31 08:05:36;;;;;;;5.75;3.10;;;20.50;99.90;;;;;;5047481;28;20199;-76
2022/10/31 08:08:05;;;;;;;6.97;3.22;;;20.60;99.90;;;;;;5045248;28;20242;-76
2022/10/31 08:10:33;;;;;;;6.93;3.35;;;20.70;99.90;;;;;;5044927;28;20211;-76
2022/10/31 08:13:02;;;;;;;7.32;3.28;;;20.90;99.90;;;;;;5042712;28;20241;-76
2022/10/31 08:15:31;;;;;;;7.90;3.10;;;21.10;99.90;;;;;;5044954;28;20505;-76
2022/10/31 08:17:59;;;;;;;5.97;3.25;;;21.30;99.90;;;;;;5047556;28;20281;-76
2022/10/31 08:20:27;;;;;;;4.32;3.38;;;21.50;99.90;;;;;;5043329;28;20222;-76
2022/10/31 08:22:56;;;;;;;4.65;3.03;;;21.50;99.90;;;;;;5047768;28;20603;-76
2022/10/31 08:25:24;;;;;;;8.07;3.05;;;21.60;99.90;;;;;;5043655;28;20481;-76
2022/10/31 08:27:52;;;;;;;7.63;3.38;;;21.70;99.90;;;;;;5026794;28;20233;-76
2022/10/31 08:30:21;;;;;;;7.95;3.70;;;21.90;99.90;;;;;;5045776;28;20227;-76
2022/10/31 08:32:59;;;;;;;8.52;3.70;;;21.80;99.90;;;;;;5030073;28;20540;-76
2022/10/31 08:35:26;;;;;;;6.45;4.03;;;21.80;99.90;;;;;;5045004;28;20202;-76
2022/10/31 08:37:55;;;;;;;6.85;3.00;;;21.90;99.90;;;;;;5045299;28;20620;-76
2022/10/31 08:40:23;;;;;;;6.93;3.17;;;22.20;99.90;;;;;;5010401;28;20198;-76
2022/10/31 08:42:58;;;;;;;6.95;3.20;;;22.40;99.90;;;;;;5046493;28;20234;-79
2022/10/31 08:45:26;;;;;;;6.13;2.78;;;22.30;99.90;;;;;;5028874;28;20660;-77
2022/10/31 08:48:05;;;;;;;5.00;3.17;;;22.30;99.90;;;;;;5044715;28;20325;-76
2022/10/31 08:50:36;;;;;;;4.28;3.00;;;22.40;99.90;;;;;;5027226;28;20223;-78
2022/10/31 08:53:05;;;;;;;5.90;2.95;;;22.30;99.90;;;;;;5027703;28;20339;-77
2022/10/31 08:55:33;;;;;;;9.35;3.30;;;22.30;99.90;;;;;;5045259;28;20194;-76
2022/10/31 08:58:01;;;;;;;8.40;3.53;;;22.40;99.90;;;;;;5044762;28;20731;-77
2022/10/31 09:00:28;;;;;;;6.45;3.13;;;22.40;99.90;;;;;;5046299;28;20195;-76
2022/10/31 09:03:03;;;;;;;6.03;3.17;;;22.40;99.90;;;;;;5028123;28;20237;-76
2022/10/31 09:05:31;;;;;;;5.15;3.05;;;22.50;99.90;;;;;;5046017;28;20203;-78
2022/10/31 09:07:59;;;;;;;6.03;3.08;;;22.70;99.90;;;;;;5045481;28;20227;-77
2022/10/31 09:10:27;;;;;;;5.53;2.60;;;22.80;99.90;;;;;;5046480;28;20599;-77
2022/10/31 09:12:58;;;;;;;7.10;3.72;;;22.90;99.90;;;;;;5044126;28;20359;-76
2022/10/31 09:15:26;;;;;;;5.18;3.20;;;22.90;99.90;;;;;;5025790;28;20566;-77
2022/10/31 09:17:54;;;;;;;4.63;2.70;;;22.90;99.90;;;;;;5023502;28;20231;-77
2022/10/31 09:20:23;;;;;;;7.15;3.40;;;23.00;99.90;;;;;;5045192;28;20273;-77
2022/10/31 09:22:57;;;;;;;5.80;3.05;;;22.90;99.90;;;;;;5045304;28;20223;-78
2022/10/31 09:25:25;;;;;;;7.03;3.15;;;22.90;99.90;;;;;;5042940;28;20206;-77
2022/10/31 09:27:52;;;;;;;9.10;3.30;;;22.80;99.90;;;;;;5043573;28;20222;-77
2022/10/31 09:30:20;;;;;;;6.65;3.20;;;22.90;99.90;;;;;;5046988;28;20219;-77
2022/10/31 09:32:47;;;;;;;5.47;2.95;;;22.70;99.90;;;;;;5046731;28;20229;-77
2022/10/31 09:35:15;;;;;;;6.22;3.03;;;22.60;99.90;;;;;;5055803;28;20259;-78
2022/10/31 09:37:44;;;;;;;7.05;3.17;;;22.80;99.90;;;;;;5053671;28;20288;-77
2022/10/31 09:40:12;;;;;;;6.93;3.08;;;22.80;99.90;;;;;;5041376;28;20194;-78
2022/10/31 09:42:57;;;;;;;6.30;2.72;;;22.80;99.90;;;;;;5048986;28;20711;-77
2022/10/31 09:45:31;;;;;;;4.60;3.00;;;22.70;99.90;;;;;;5050188;28;20262;-77
2022/10/31 09:48:29;;;;;;;7.93;3.00;;;22.80;99.90;;;;;;5044971;28;20229;-78
2022/10/31 09:51:00;;;;;;;6.18;3.38;;;22.90;99.90;;;;;;5048903;28;20211;-77
2022/10/31 09:53:34;;;;;;;7.45;3.13;;;23.10;99.90;;;;;;5046567;28;20702;-77
2022/10/31 09:56:04;;;;;;;7.95;3.10;;;23.30;99.90;;;;;;5045873;28;20201;-77
2022/10/31 09:58:33;;;;;;;5.57;3.03;;;23.40;99.90;;;;;;5026163;28;20225;-77
2022/10/31 10:01:04;;;;;;;5.13;2.83;;;23.40;99.90;;;;;;5043319;28;20195;-77
2022/10/31 10:03:37;;;;;;;6.22;3.33;;;23.20;99.90;;;;;;5045010;28;20226;-77
2022/10/31 10:06:12;;;;;;;6.30;3.13;;;23.30;99.90;;;;;;5021296;28;20205;-77
2022/10/31 10:08:42;;;;;;;5.80;3.10;;;23.50;99.90;;;;;;5045039;28;20646;-77
2022/10/31 10:11:34;;;;;;;10.38;3.20;;;23.40;99.90;;;;;;5043912;28;20223;-77
2022/10/31 10:14:27;;;;;;;6.18;2.72;;;23.40;99.90;;;;;;5023529;28;20233;-77
2022/10/31 10:17:06;;;;;;;5.93;2.95;;;23.40;99.90;;;;;;5044553;28;20226;-77
2022/10/31 10:20:04;;;;;;;6.88;2.88;;;23.40;99.90;;;;;;5038991;28;20604;-77
2022/10/31 10:22:42;;;;;;;8.07;3.10;;;23.40;99.90;;;;;;5024119;28;20415;-77
2022/10/31 10:25:34;;;;;;;5.60;2.92;;;23.70;99.90;;;;;;5042549;28;20225;-77
2022/10/31 10:28:16;;;;;;;8.48;2.88;;;23.70;99.90;;;;;;5023058;28;20237;-77
2022/10/31 10:30:47;;;;;;;6.95;3.25;;;23.70;99.90;;;;;;5028598;28;20214;-77
2022/10/31 10:33:19;;;;;;;6.03;2.85;;;23.70;99.90;;;;;;5041967;28;20286;-77
2022/10/31 10:35:51;;;;;;;8.13;3.15;;;23.60;99.90;;;;;;5028371;28;20195;-78
2022/10/31 10:38:27;;;;;;;6.25;3.55;;;23.50;99.90;;;;;;5031157;28;20258;-77
2022/10/31 10:40:57;;;;;;;5.72;3.05;;;23.30;99.90;;;;;;5048584;28;20964;-77
2022/10/31 10:43:32;;;;;;;9.35;3.53;;;23.30;99.90;;;;;;5045664;28;20229;-76
2022/10/31 10:49:06;;;;;;;6.43;3.22;;;23.40;99.90;;;;;;5039662;28;21973;-77
2022/10/31 10:51:41;;;;;;;8.75;3.55;;;23.60;99.90;;;;;;5045427;28;20218;-77
2022/10/31 10:55:06;;;;;;;6.97;3.47;;;23.60;99.90;;;;;;5048567;28;20233;-79
2022/10/31 11:00:40;;;;;;;9.40;3.40;;;23.30;99.90;;;;;;5000889;28;20215;-76
2022/10/31 11:03:08;;;;;;;7.70;3.10;;;23.00;99.90;;;;;;5005744;28;20219;-77
2022/10/31 11:05:40;;;;;;;5.38;3.28;;;23.00;99.90;;;;;;5007403;28;20586;-77
2022/10/31 11:08:07;;;;;;;6.90;3.03;;;23.00;99.90;;;;;;5008603;28;20216;-76
2022/10/31 11:10:35;;;;;;;6.55;2.72;;;23.00;99.90;;;;;;5012025;28;20796;-77
2022/10/31 11:13:07;;;;;;;8.10;2.78;;;22.80;99.90;;;;;;5012712;28;20216;-78
2022/10/31 11:15:50;;;;;;;7.53;2.65;;;22.80;99.90;;;;;;5013007;28;20192;-77
2022/10/31 11:18:24;;;;;;;6.20;3.45;;;22.80;99.90;;;;;;5011265;28;20228;-77
2022/10/31 11:20:53;;;;;;;9.15;4.03;;;23.00;99.90;;;;;;5017118;28;20307;-77
2022/10/31 11:23:21;;;;;;;6.63;3.17;;;23.30;99.90;;;;;;5006764;28;20319;-77
2022/10/31 11:25:55;;;;;;;8.75;3.20;;;23.50;99.90;;;;;;5015282;28;20222;-77
2022/10/31 11:28:23;;;;;;;7.63;3.60;;;23.60;99.90;;;;;;5010153;28;20281;-78
2022/10/31 11:30:54;;;;;;;7.20;3.05;;;23.50;99.90;;;;;;5013870;28;20243;-77
2022/10/31 11:33:27;;;;;;;8.05;3.45;;;23.40;99.90;;;;;;5013309;28;20597;-80
2022/10/31 11:35:55;;;;;;;7.97;3.35;;;23.40;99.90;;;;;;5010087;28;20204;-77
2022/10/31 11:38:24;;;;;;;5.85;2.50;;;23.10;99.90;;;;;;5006743;28;20525;-76
2022/10/31 11:40:55;;;;;;;7.95;2.90;;;22.90;99.90;;;;;;5010601;28;20227;-77
2022/10/31 11:43:23;;;;;;;5.10;2.42;;;22.90;99.90;;;;;;5006577;28;20223;-77
2022/10/31 11:45:52;;;;;;;7.05;3.03;;;23.00;99.90;;;;;;5009852;28;20197;-76
2022/10/31 11:48:21;;;;;;;4.78;2.97;;;23.10;99.90;;;;;;5006294;28;20491;-74
2022/10/31 11:50:53;;;;;;;5.72;3.20;;;23.00;99.90;;;;;;5012507;28;20220;-75
2022/10/31 11:53:29;;;;;;;5.47;2.90;;;23.00;99.90;;;;;;5011868;28;20556;-76
2022/10/31 11:56:06;;;;;;;6.60;2.83;;;23.20;99.90;;;;;;5010771;28;20674;-75
2022/10/31 11:58:34;;;;;;;7.95;2.88;;;23.40;99.90;;;;;;5009655;28;20418;-76
2022/10/31 12:01:02;;;;;;;4.82;2.60;;;23.40;99.90;;;;;;5016454;28;20227;-77
2022/10/31 12:03:45;;;;;;;5.15;2.92;;;23.60;99.90;;;;;;5011493;28;20227;-75
2022/10/31 12:06:18;;;;;;;5.40;2.70;;;23.60;99.90;;;;;;5008065;28;20286;-76
2022/10/31 12:08:46;;;;;;;6.88;2.88;;;23.50;99.90;;;;;;5004834;28;20298;-78
2022/10/31 12:11:29;;;;;;;3.70;2.83;;;23.40;99.90;;;;;;5009918;28;20235;-77
2022/10/31 12:14:11;;;;;;;5.65;2.90;;;23.20;99.90;;;;;;5012887;28;20210;-80
2022/10/31 12:16:47;;;;;;;5.35;2.30;;;23.10;99.90;;;;;;5021845;28;20177;-80
2022/10/31 12:19:23;;;;;;;6.93;3.15;;;23.00;99.90;;;;;;5027494;28;20210;-79
2022/10/31 12:22:11;;;;;;;5.60;2.50;;;23.20;99.90;;;;;;5035710;28;20208;-79
2022/10/31 12:24:58;;;;;;;7.82;2.83;;;23.20;99.90;;;;;;5023808;28;20192;-79
2022/10/31 12:27:37;;;;;;;4.90;3.00;;;23.10;99.90;;;;;;5030442;28;20207;-79
2022/10/31 12:30:18;;;;;;;7.43;3.47;;;22.90;99.90;;;;;;5025216;28;20258;-80
2022/10/31 12:33:13;;;;;;;6.80;3.00;;;22.80;99.90;;;;;;5026194;28;20208;-80
2022/10/31 12:35:49;;;;;;;5.50;2.72;;;22.70;99.90;;;;;;5029699;28;20259;-80
2022/10/31 12:38:42;;;;;;;5.28;3.05;;;22.50;99.90;;;;;;5030439;28;20211;-79
2022/10/31 12:41:23;;;;;;;3.65;2.47;;;22.30;99.90;;;;;;5030845;28;20240;-80
2022/10/31 12:43:57;;;;;;;5.10;2.45;;;22.40;99.90;;;;;;5026474;28;20219;-80
2022/10/31 12:46:36;;;;;;;7.35;2.47;;;22.40;99.90;;;;;;5032283;28;20615;-79
2022/10/31 12:49:35;;;;;;;4.50;2.28;;;22.30;99.90;;;;;;5033083;28;20263;-80
2022/10/31 12:52:18;;;;;;;4.90;2.35;;;22.10;99.90;;;;;;5029748;28;20207;-79
2022/10/31 12:55:11;;;;;;;6.05;3.00;;;22.10;99.90;;;;;;5032205;28;20214;-80
2022/10/31 12:57:43;;;;;;;7.85;2.78;;;22.20;99.90;;;;;;5031136;28;20591;-80
2022/10/31 13:00:28;;;;;;;5.32;2.47;;;22.30;99.90;;;;;;5030146;28;20218;-80
2022/10/31 13:03:05;;;;;;;5.32;2.92;;;22.40;99.90;;;;;;5006602;28;20689;-72
2022/10/31 13:05:38;;;;;;;5.38;2.70;;;22.40;99.90;;;;;;5019387;28;20200;-72
2022/10/31 13:08:10;;;;;;;5.30;2.88;;;22.60;99.90;;;;;;5011704;28;20211;-72
2022/10/31 13:10:43;;;;;;;4.05;2.70;;;22.80;99.90;;;;;;5009289;28;20224;-72
2022/10/31 13:13:22;;;;;;;3.47;2.15;;;22.80;99.90;;;;;;5010416;28;20223;-72
2022/10/31 13:15:53;;;;;;;4.30;2.30;;;22.80;99.90;;;;;;5012209;28;20285;-71
2022/10/31 13:18:29;;;;;;;5.43;2.60;;;22.60;99.90;;;;;;5008651;28;20216;-71
2022/10/31 13:21:00;;;;;;;5.75;2.83;;;22.60;99.90;;;;;;5011186;28;20192;-72